Terminal Aerodrome Forecast
Issued by NWS Portland, OR

Home | Current Version | Previous Version | Text Only | Print | Product List | Glossary On
Versions: 1 2 3 4 5 6 7 8 9 10 11 12 13 14
000
FTUS46 KPQR 220528
TAFEUG
TAF
KEUG 220528Z 2206/2306 18005KT P6SM BKN200
     FM221000 13011KT 5SM -RA SCT025 OVC040
     FM221200 15014KT P6SM -SHRA BKN050 OVC100
     FM221800 18017G25KT P6SM -SHRA SCT030 OVC060
     FM230200 20008KT P6SM OVC100=

USA.gov is the U.S. government's official web portal to all federal, state and local government web resources and services.